createdAt,value
2019-03-29T00:01:15.471Z,34.77
2019-03-29T00:03:44.146Z,38.50
2019-03-29T00:06:12.532Z,38.17
2019-03-29T00:08:40.936Z,40.20
2019-03-29T00:11:09.319Z,39.60
2019-03-29T00:13:38.285Z,35.97
2019-03-29T00:16:06.676Z,37.30
2019-03-29T00:18:35.964Z,38.67
2019-03-29T00:21:04.554Z,40.60
2019-03-29T00:23:32.939Z,36.87
2019-03-29T00:26:01.428Z,38.87
2019-03-29T00:28:29.812Z,36.43
2019-03-29T00:30:58.468Z,38.60
2019-03-29T00:33:27.147Z,35.97
2019-03-29T00:35:55.537Z,36.73
2019-03-29T00:38:24.017Z,37.00
2019-03-29T00:40:52.693Z,34.60
2019-03-29T00:43:21.071Z,34.40
2019-03-29T00:45:49.482Z,35.50
2019-03-29T00:48:17.887Z,35.53
2019-03-29T00:50:46.327Z,38.30
2019-03-29T00:53:14.997Z,33.00
2019-03-29T00:55:43.409Z,41.30
2019-03-29T00:58:11.809Z,32.87
2019-03-29T01:00:40.546Z,31.37
2019-03-29T01:03:08.933Z,32.43
2019-03-29T01:05:37.606Z,31.03
2019-03-29T01:08:08.014Z,32.60
2019-03-29T01:10:36.620Z,34.50
2019-03-29T01:13:05.313Z,34.77
2019-03-29T01:15:33.731Z,36.03
2019-03-29T01:18:02.335Z,38.93
2019-03-29T01:20:30.887Z,37.47
2019-03-29T01:22:59.274Z,38.47
2019-03-29T01:25:27.661Z,39.13
2019-03-29T01:27:56.302Z,38.43
2019-03-29T01:30:24.799Z,37.97
2019-03-29T01:32:53.472Z,44.10
2019-03-29T01:35:21.867Z,40.10
2019-03-29T01:37:50.940Z,37.13
2019-03-29T01:40:19.628Z,38.23
2019-03-29T01:42:48.006Z,34.47
2019-03-29T01:45:16.900Z,37.50
2019-03-29T01:47:45.288Z,35.57
2019-03-29T01:50:14.583Z,36.00
2019-03-29T01:52:43.090Z,36.50
2019-03-29T01:55:11.661Z,36.13
2019-03-29T01:57:40.063Z,35.67
2019-03-29T02:00:09.308Z,33.60
2019-03-29T02:02:38.184Z,33.23
2019-03-29T02:05:07.939Z,32.83
2019-03-29T02:07:36.340Z,33.03
2019-03-29T02:10:07.965Z,33.10
2019-03-29T02:12:37.160Z,31.87
2019-03-29T02:15:08.925Z,37.23
2019-03-29T02:17:38.135Z,31.03
2019-03-29T02:20:08.352Z,33.50
2019-03-29T02:22:37.125Z,33.07
2019-03-29T02:25:08.479Z,32.40
2019-03-29T02:27:37.108Z,30.83
2019-03-29T02:30:09.101Z,33.27
2019-03-29T02:32:37.517Z,30.67
2019-03-29T02:35:07.424Z,33.53
2019-03-29T02:37:36.228Z,36.40
2019-03-29T02:40:06.322Z,31.50
2019-03-29T02:42:34.802Z,35.43
2019-03-29T02:45:03.915Z,32.10
2019-03-29T02:47:32.588Z,30.70
2019-03-29T02:50:01.276Z,34.43
2019-03-29T02:52:29.965Z,34.87
2019-03-29T02:54:58.359Z,35.03
2019-03-29T02:57:26.810Z,33.93
2019-03-29T02:59:55.614Z,31.73
2019-03-29T03:02:26.184Z,30.73
2019-03-29T03:04:54.127Z,32.83
2019-03-29T03:07:22.511Z,34.27
2019-03-29T03:09:51.011Z,32.17
2019-03-29T03:12:19.398Z,33.43
2019-03-29T03:14:47.848Z,31.67
2019-03-29T03:17:16.274Z,33.23
2019-03-29T03:19:44.645Z,31.30
2019-03-29T03:22:13.041Z,35.50
2019-03-29T03:24:41.431Z,32.17
2019-03-29T03:27:09.857Z,33.87
2019-03-29T03:29:38.249Z,35.13
2019-03-29T03:32:06.827Z,35.10
2019-03-29T03:34:35.281Z,32.33
2019-03-29T03:37:03.602Z,32.73
2019-03-29T03:39:32.792Z,32.43
2019-03-29T03:42:01.318Z,32.10
2019-03-29T03:44:29.714Z,34.07
2019-03-29T03:46:58.113Z,34.03
2019-03-29T03:49:26.776Z,37.73
2019-03-29T03:51:55.400Z,32.27
2019-03-29T03:54:24.173Z,34.43
2019-03-29T03:56:53.909Z,35.80
2019-03-29T03:59:25.921Z,34.00
2019-03-29T04:01:54.420Z,32.77
2019-03-29T04:04:22.914Z,28.87
2019-03-29T04:06:51.597Z,30.63
2019-03-29T04:09:19.975Z,34.20
2019-03-29T04:11:48.554Z,31.73
2019-03-29T04:14:17.218Z,28.93
2019-03-29T04:16:46.005Z,29.07
2019-03-29T04:19:14.409Z,29.00
2019-03-29T04:21:43.067Z,29.23
2019-03-29T04:24:11.572Z,28.23
2019-03-29T04:26:39.980Z,27.57
2019-03-29T04:29:08.439Z,27.97
2019-03-29T04:31:37.335Z,28.47
2019-03-29T04:34:05.995Z,30.00
2019-03-29T04:36:34.695Z,27.23
2019-03-29T04:39:05.002Z,31.03
2019-03-29T04:41:33.649Z,26.30
2019-03-29T04:44:02.041Z,29.30
2019-03-29T04:46:30.432Z,26.60
2019-03-29T04:48:59.230Z,25.80
2019-03-29T04:51:27.926Z,25.23
2019-03-29T04:53:56.606Z,27.00
2019-03-29T04:56:25.396Z,24.83
2019-03-29T04:58:53.807Z,23.90
2019-03-29T05:01:22.262Z,34.60
2019-03-29T05:03:50.653Z,25.70
2019-03-29T05:06:19.058Z,26.17
2019-03-29T05:08:47.452Z,25.13
2019-03-29T05:11:15.848Z,24.90
2019-03-29T05:13:44.560Z,25.10
2019-03-29T05:16:12.956Z,25.93
2019-03-29T05:18:41.340Z,25.20
2019-03-29T05:21:09.744Z,24.57
2019-03-29T05:23:38.184Z,24.60
2019-03-29T05:26:06.684Z,24.10
2019-03-29T05:28:35.093Z,24.00
2019-03-29T05:31:03.556Z,26.37
2019-03-29T05:33:31.939Z,24.70
2019-03-29T05:36:04.572Z,28.60
2019-03-29T05:38:33.078Z,24.13
2019-03-29T05:41:01.561Z,26.00
2019-03-29T05:43:30.326Z,23.93
2019-03-29T05:45:58.834Z,23.27
2019-03-29T05:48:27.518Z,27.30
2019-03-29T05:50:55.919Z,25.37
2019-03-29T05:53:24.567Z,23.50
2019-03-29T05:55:53.247Z,27.37
2019-03-29T05:58:21.636Z,25.60
2019-03-29T06:00:50.025Z,25.67
2019-03-29T06:03:18.419Z,27.67
2019-03-29T06:05:46.799Z,23.77
2019-03-29T06:08:15.469Z,30.30
2019-03-29T06:10:49.387Z,24.57
2019-03-29T06:13:13.992Z,23.33
2019-03-29T06:15:42.633Z,24.77
2019-03-29T06:18:11.261Z,24.60
2019-03-29T06:20:39.679Z,24.07
2019-03-29T06:23:08.231Z,24.17
2019-03-29T06:25:37.026Z,24.13
2019-03-29T06:28:05.428Z,23.70
2019-03-29T06:30:34.425Z,24.30
2019-03-29T06:33:02.946Z,23.37
2019-03-29T06:35:33.800Z,23.93
2019-03-29T06:38:03.353Z,23.20
2019-03-29T06:40:32.068Z,24.60
2019-03-29T06:43:00.455Z,23.83
2019-03-29T06:45:28.868Z,24.30
2019-03-29T06:47:57.261Z,46.13
2019-03-29T06:50:25.647Z,33.27
2019-03-29T06:52:54.044Z,33.03
2019-03-29T06:55:22.512Z,26.80
2019-03-29T06:57:50.930Z,25.50
2019-03-29T07:00:19.510Z,22.67
2019-03-29T07:02:48.193Z,22.97
2019-03-29T07:05:16.902Z,24.90
2019-03-29T07:07:45.282Z,23.93
2019-03-29T07:10:14.146Z,24.27
2019-03-29T07:12:42.750Z,23.23
2019-03-29T07:15:11.159Z,22.93
2019-03-29T07:17:39.545Z,21.30
2019-03-29T07:20:08.202Z,20.73
2019-03-29T07:22:36.974Z,22.43
2019-03-29T07:25:08.883Z,21.33
2019-03-29T07:27:44.658Z,20.50
2019-03-29T07:30:08.033Z,20.70
2019-03-29T07:32:36.438Z,21.07
2019-03-29T07:35:07.059Z,19.70
2019-03-29T07:37:35.468Z,20.87
2019-03-29T07:40:04.405Z,20.77
2019-03-29T07:42:32.820Z,20.37
2019-03-29T07:45:01.212Z,20.80
2019-03-29T07:47:29.780Z,19.93
2019-03-29T07:49:58.181Z,19.40
2019-03-29T07:52:26.741Z,20.07
2019-03-29T07:54:55.120Z,19.10
2019-03-29T07:57:23.520Z,20.43
2019-03-29T07:59:51.917Z,20.00
2019-03-29T08:02:20.572Z,20.40
2019-03-29T08:04:49.157Z,21.40
2019-03-29T08:07:27.267Z,19.77
2019-03-29T08:09:47.658Z,21.57
2019-03-29T08:12:16.199Z,21.47
2019-03-29T08:14:44.899Z,22.20
2019-03-29T08:17:13.404Z,22.30
2019-03-29T08:19:41.793Z,23.77
2019-03-29T08:22:10.188Z,22.40
2019-03-29T08:24:38.571Z,23.67
2019-03-29T08:27:07.130Z,22.33
2019-03-29T08:29:35.541Z,21.77
2019-03-29T08:32:03.938Z,21.50
2019-03-29T08:34:35.670Z,23.20
2019-03-29T08:37:02.587Z,20.63
2019-03-29T08:39:30.927Z,20.50
2019-03-29T08:42:00.603Z,20.93
2019-03-29T08:44:29.370Z,20.13
2019-03-29T08:46:58.125Z,20.03
2019-03-29T08:49:26.521Z,21.60
2019-03-29T08:51:54.910Z,20.70
2019-03-29T08:54:23.673Z,19.73
2019-03-29T08:56:52.055Z,20.33
2019-03-29T08:59:20.553Z,18.70
2019-03-29T09:01:49.116Z,20.23
2019-03-29T09:04:17.645Z,18.40
2019-03-29T09:06:53.141Z,18.07
2019-03-29T09:09:16.568Z,19.33
2019-03-29T09:11:44.992Z,18.83
2019-03-29T09:14:13.388Z,18.03
2019-03-29T09:16:41.827Z,19.50
2019-03-29T09:19:10.340Z,19.20
2019-03-29T09:21:38.882Z,16.80
2019-03-29T09:24:20.735Z,16.43
2019-03-29T09:26:37.657Z,18.57
2019-03-29T09:29:06.080Z,18.80
2019-03-29T09:31:36.223Z,18.53
2019-03-29T09:34:04.763Z,17.57
2019-03-29T09:36:33.177Z,16.40
2019-03-29T09:39:01.571Z,15.83
2019-03-29T09:41:29.959Z,16.33
2019-03-29T09:43:58.499Z,15.10
2019-03-29T09:46:27.045Z,16.00
2019-03-29T09:48:55.597Z,14.70
2019-03-29T09:51:24.062Z,15.43
2019-03-29T09:53:52.453Z,17.17
2019-03-29T09:56:20.875Z,16.10
2019-03-29T09:58:49.392Z,15.17
2019-03-29T10:01:20.798Z,15.27
2019-03-29T10:03:48.124Z,14.20
2019-03-29T10:06:16.733Z,15.20
2019-03-29T10:08:45.166Z,14.93
2019-03-29T10:11:13.598Z,12.53
2019-03-29T10:13:41.986Z,15.53
2019-03-29T10:16:10.376Z,14.43
2019-03-29T10:18:38.771Z,15.17
2019-03-29T10:21:07.161Z,13.30
2019-03-29T10:23:35.661Z,14.60
2019-03-29T10:26:04.234Z,15.03
2019-03-29T10:28:32.607Z,15.50
2019-03-29T10:31:01.095Z,14.63
2019-03-29T10:33:29.508Z,13.60
2019-03-29T10:35:58.173Z,14.03
2019-03-29T10:38:26.560Z,12.83
2019-03-29T10:40:55.233Z,14.07
2019-03-29T10:43:23.632Z,12.23
2019-03-29T10:45:52.018Z,11.97
2019-03-29T10:48:20.428Z,11.60
2019-03-29T10:50:48.983Z,11.70
2019-03-29T10:53:17.745Z,12.83
2019-03-29T10:55:46.128Z,11.83
2019-03-29T10:58:14.917Z,12.10
2019-03-29T11:00:43.303Z,11.07
2019-03-29T11:03:11.857Z,10.73
2019-03-29T11:05:40.493Z,10.90
2019-03-29T11:08:11.786Z,11.13
2019-03-29T11:10:39.979Z,11.47
2019-03-29T11:13:13.296Z,12.10
2019-03-29T11:15:38.556Z,12.40
2019-03-29T11:18:07.576Z,11.63
2019-03-29T11:20:36.050Z,12.50
2019-03-29T11:23:04.768Z,11.10
2019-03-29T11:25:33.158Z,10.30
2019-03-29T11:28:01.545Z,11.40
2019-03-29T11:30:41.602Z,11.23
2019-03-29T11:33:00.089Z,11.50
2019-03-29T11:35:28.507Z,10.87
2019-03-29T11:37:56.892Z,10.90
2019-03-29T11:40:25.278Z,11.37
2019-03-29T11:42:53.675Z,12.87
2019-03-29T11:45:22.066Z,11.43
2019-03-29T11:47:50.471Z,12.17
2019-03-29T11:50:19.424Z,10.47
2019-03-29T11:52:47.825Z,10.70
2019-03-29T11:55:16.227Z,10.63
2019-03-29T11:57:44.929Z,10.37
2019-03-29T12:00:14.808Z,10.97
2019-03-29T12:02:43.199Z,10.97
2019-03-29T12:05:11.587Z,11.47
2019-03-29T12:07:40.021Z,11.30
2019-03-29T12:10:09.337Z,10.50
2019-03-29T12:12:37.960Z,10.80
2019-03-29T12:15:08.180Z,11.97
2019-03-29T12:17:36.657Z,13.53
2019-03-29T12:20:07.216Z,13.07
2019-03-29T12:22:35.931Z,12.50
2019-03-29T12:25:06.498Z,12.73
2019-03-29T12:27:35.202Z,10.83
2019-03-29T12:30:05.579Z,11.93
2019-03-29T12:32:33.968Z,12.00
2019-03-29T12:35:02.379Z,11.27
2019-03-29T12:37:30.885Z,12.07
2019-03-29T12:39:59.274Z,11.47
2019-03-29T12:42:27.927Z,11.57
2019-03-29T12:44:56.329Z,11.47
2019-03-29T12:47:24.712Z,11.03
2019-03-29T12:49:53.107Z,11.00
2019-03-29T12:52:21.523Z,12.10
2019-03-29T12:54:54.829Z,10.80
2019-03-29T12:57:25.824Z,10.77
2019-03-29T12:59:59.113Z,11.00
2019-03-29T13:02:27.502Z,10.13
2019-03-29T13:05:01.916Z,10.77
2019-03-29T13:07:30.306Z,10.70
2019-03-29T13:09:58.864Z,10.07
2019-03-29T13:12:27.527Z,11.87
2019-03-29T13:14:55.909Z,10.17
2019-03-29T13:17:24.584Z,10.70
2019-03-29T13:19:52.981Z,10.67
2019-03-29T13:22:21.597Z,10.47
2019-03-29T13:24:50.143Z,10.60
2019-03-29T13:27:18.664Z,10.27
2019-03-29T13:29:47.122Z,10.30
2019-03-29T13:32:15.561Z,11.30
2019-03-29T13:34:44.006Z,10.97
2019-03-29T13:37:12.770Z,11.87
2019-03-29T13:39:41.468Z,10.40
2019-03-29T13:42:09.843Z,10.00
2019-03-29T13:44:38.418Z,11.17
2019-03-29T13:47:06.880Z,11.70
2019-03-29T13:49:35.393Z,11.03
2019-03-29T13:52:03.869Z,10.50
2019-03-29T13:54:32.277Z,11.83
2019-03-29T13:57:04.432Z,10.80
2019-03-29T13:59:32.962Z,10.53
2019-03-29T14:02:01.358Z,10.33
2019-03-29T14:04:29.931Z,11.37
2019-03-29T14:06:58.451Z,10.87
2019-03-29T14:09:29.317Z,11.67
2019-03-29T14:11:57.023Z,11.83
2019-03-29T14:14:37.691Z,11.70
2019-03-29T14:16:55.547Z,11.97
2019-03-29T14:19:25.853Z,11.37
2019-03-29T14:21:54.169Z,10.40
2019-03-29T14:24:22.743Z,11.60
2019-03-29T14:26:53.137Z,11.13
2019-03-29T14:29:21.592Z,11.27
2019-03-29T14:31:50.097Z,11.07
2019-03-29T14:34:18.500Z,10.77
2019-03-29T14:36:46.948Z,10.73
2019-03-29T14:39:15.496Z,11.03
2019-03-29T14:41:44.200Z,11.40
2019-03-29T14:44:12.523Z,10.60
2019-03-29T14:46:41.205Z,11.20
2019-03-29T14:49:09.899Z,9.93
2019-03-29T14:51:38.522Z,10.03
2019-03-29T14:54:06.925Z,9.97
2019-03-29T14:56:36.001Z,10.47
2019-03-29T14:59:04.376Z,9.83
2019-03-29T15:01:32.921Z,9.67
2019-03-29T15:04:01.843Z,10.17
2019-03-29T15:06:30.327Z,10.67
2019-03-29T15:08:59.185Z,10.00
2019-03-29T15:11:27.612Z,8.83
2019-03-29T15:13:56.006Z,9.03
2019-03-29T15:16:24.399Z,8.80
2019-03-29T15:18:52.799Z,10.10
2019-03-29T15:21:21.191Z,8.63
2019-03-29T15:23:49.571Z,10.10
2019-03-29T15:26:18.060Z,9.20
2019-03-29T15:28:46.437Z,8.00
2019-03-29T15:31:14.899Z,9.47
2019-03-29T15:33:43.349Z,8.80
2019-03-29T15:36:11.823Z,9.80
2019-03-29T15:38:40.218Z,8.90
2019-03-29T15:41:08.619Z,8.70
2019-03-29T15:43:37.112Z,9.90
2019-03-29T15:46:05.490Z,8.80
2019-03-29T15:48:35.292Z,8.07
2019-03-29T15:51:03.763Z,9.07
2019-03-29T15:53:32.440Z,8.80
2019-03-29T15:56:00.821Z,8.80
2019-03-29T15:58:29.228Z,8.73
2019-03-29T16:00:57.616Z,8.67
2019-03-29T16:03:25.998Z,9.13
2019-03-29T16:05:54.398Z,9.27
2019-03-29T16:08:22.771Z,8.70
2019-03-29T16:10:51.145Z,9.20
2019-03-29T16:13:19.607Z,9.13
2019-03-29T16:15:48.140Z,9.17
2019-03-29T16:18:16.787Z,9.37
2019-03-29T16:20:45.335Z,8.23
2019-03-29T16:23:13.774Z,8.90
2019-03-29T16:25:42.161Z,8.00
2019-03-29T16:28:10.563Z,8.43
2019-03-29T16:30:38.939Z,8.67
2019-03-29T16:33:07.318Z,9.10
2019-03-29T16:35:36.026Z,9.23
2019-03-29T16:38:04.527Z,8.13
2019-03-29T16:40:32.914Z,8.80
2019-03-29T16:43:01.564Z,7.80
2019-03-29T16:45:29.955Z,7.80
2019-03-29T16:47:58.654Z,8.70
2019-03-29T16:50:27.034Z,9.07
2019-03-29T16:52:55.574Z,8.50
2019-03-29T16:55:24.277Z,8.90
2019-03-29T16:57:52.727Z,8.30
2019-03-29T17:00:21.303Z,7.70
2019-03-29T17:02:49.739Z,8.63
2019-03-29T17:05:18.128Z,8.50
2019-03-29T17:07:46.599Z,7.93
2019-03-29T17:10:15.315Z,8.10
2019-03-29T17:12:43.877Z,8.10
2019-03-29T17:15:12.401Z,8.07
2019-03-29T17:17:41.086Z,8.07
2019-03-29T17:20:09.796Z,8.50
2019-03-29T17:22:38.213Z,8.33
2019-03-29T17:25:08.451Z,8.67
2019-03-29T17:27:36.898Z,8.53
2019-03-29T17:30:07.412Z,9.50
2019-03-29T17:32:35.819Z,8.50
2019-03-29T17:35:06.233Z,8.33
2019-03-29T17:37:34.909Z,7.70
2019-03-29T17:40:04.727Z,8.70
2019-03-29T17:42:33.049Z,8.20
2019-03-29T17:45:01.481Z,8.57
2019-03-29T17:47:29.863Z,8.70
2019-03-29T17:49:58.263Z,8.20
2019-03-29T17:52:27.042Z,9.40
2019-03-29T17:54:55.443Z,7.73
2019-03-29T17:57:23.817Z,7.30
2019-03-29T17:59:52.192Z,7.67
2019-03-29T18:02:20.698Z,8.27
2019-03-29T18:04:49.099Z,7.80
2019-03-29T18:07:17.484Z,7.40
2019-03-29T18:09:45.858Z,8.87
2019-03-29T18:12:14.688Z,7.43
2019-03-29T18:14:43.065Z,7.77
2019-03-29T18:17:11.459Z,7.40
2019-03-29T18:19:40.073Z,7.70
2019-03-29T18:22:08.451Z,7.77
2019-03-29T18:24:37.596Z,8.20
2019-03-29T18:27:05.993Z,7.90
2019-03-29T18:29:34.373Z,7.60
2019-03-29T18:32:03.452Z,7.87
2019-03-29T18:34:32.088Z,7.57
2019-03-29T18:37:01.708Z,7.73
2019-03-29T18:39:30.916Z,7.97
2019-03-29T18:41:59.337Z,7.10
2019-03-29T18:44:27.737Z,7.67
2019-03-29T18:46:56.392Z,7.60
2019-03-29T18:49:24.794Z,8.13
2019-03-29T18:51:55.659Z,8.90
2019-03-29T18:54:24.030Z,8.57
2019-03-29T18:56:52.459Z,8.67
2019-03-29T18:59:20.849Z,8.73
2019-03-29T19:01:49.248Z,9.00
2019-03-29T19:04:17.720Z,9.07
2019-03-29T19:06:46.312Z,9.77
2019-03-29T19:09:14.691Z,8.90
2019-03-29T19:11:43.292Z,9.37
2019-03-29T19:14:11.712Z,9.67
2019-03-29T19:16:40.087Z,8.77
2019-03-29T19:19:10.284Z,9.37
2019-03-29T19:21:41.238Z,10.13
2019-03-29T19:24:09.918Z,9.93
2019-03-29T19:26:38.302Z,10.33
2019-03-29T19:29:06.681Z,9.90
2019-03-29T19:31:35.076Z,10.30
2019-03-29T19:34:03.787Z,10.10
2019-03-29T19:36:32.503Z,10.17
2019-03-29T19:39:00.884Z,10.27
2019-03-29T19:41:29.267Z,10.50
2019-03-29T19:43:57.661Z,10.10
2019-03-29T19:46:26.133Z,10.00
2019-03-29T19:48:54.512Z,10.30
2019-03-29T19:51:22.902Z,10.20
2019-03-29T19:53:51.448Z,11.13
2019-03-29T19:56:20.213Z,9.93
2019-03-29T19:58:48.607Z,10.50
2019-03-29T20:01:17.297Z,9.23
2019-03-29T20:03:45.681Z,10.27
2019-03-29T20:06:14.265Z,10.00
2019-03-29T20:08:42.930Z,9.70
2019-03-29T20:11:11.322Z,10.07
2019-03-29T20:13:39.807Z,10.20
2019-03-29T20:16:08.427Z,10.30
2019-03-29T20:18:37.062Z,9.90
2019-03-29T20:21:05.467Z,10.00
2019-03-29T20:23:33.894Z,9.73
2019-03-29T20:26:02.287Z,9.80
2019-03-29T20:28:30.665Z,10.10
2019-03-29T20:30:59.334Z,9.63
2019-03-29T20:33:27.720Z,10.23
2019-03-29T20:35:56.097Z,10.33
2019-03-29T20:38:24.810Z,10.43
2019-03-29T20:40:53.495Z,10.00
2019-03-29T20:43:21.940Z,9.57
2019-03-29T20:45:50.698Z,10.73
2019-03-29T20:48:19.051Z,10.30
2019-03-29T20:50:47.642Z,10.00
2019-03-29T20:53:16.338Z,10.60
2019-03-29T20:55:44.724Z,10.13
2019-03-29T20:58:13.299Z,10.37
2019-03-29T21:00:41.697Z,11.37
2019-03-29T21:03:10.145Z,10.60
2019-03-29T21:05:38.541Z,11.20
2019-03-29T21:08:07.402Z,10.27
2019-03-29T21:10:36.524Z,10.10
2019-03-29T21:13:07.369Z,10.77
2019-03-29T21:15:36.336Z,10.17
2019-03-29T21:18:04.834Z,11.47
2019-03-29T21:20:33.237Z,11.30
2019-03-29T21:23:01.979Z,10.37
2019-03-29T21:25:30.475Z,11.60
2019-03-29T21:27:58.987Z,11.13
2019-03-29T21:30:27.445Z,12.37
2019-03-29T21:32:55.832Z,11.17
2019-03-29T21:35:24.273Z,10.93
2019-03-29T21:37:52.655Z,10.93
2019-03-29T21:40:21.057Z,10.53
2019-03-29T21:42:49.436Z,10.83
2019-03-29T21:45:28.521Z,11.40
2019-03-29T21:48:01.901Z,11.67
2019-03-29T21:50:19.353Z,11.73
2019-03-29T21:52:47.824Z,11.27
2019-03-29T21:55:16.539Z,11.27
2019-03-29T21:57:44.954Z,11.33
2019-03-29T22:00:14.423Z,11.20
2019-03-29T22:02:42.886Z,12.43
2019-03-29T22:05:13.655Z,12.33
2019-03-29T22:07:42.326Z,12.90
2019-03-29T22:10:11.255Z,11.70
2019-03-29T22:12:42.869Z,13.13
2019-03-29T22:15:10.511Z,12.67
2019-03-29T22:17:39.436Z,13.80
2019-03-29T22:20:08.731Z,13.30
2019-03-29T22:22:37.455Z,14.10
2019-03-29T22:25:10.071Z,14.30
2019-03-29T22:27:38.545Z,13.83
2019-03-29T22:30:08.470Z,13.53
2019-03-29T22:32:36.851Z,12.63
2019-03-29T22:35:07.791Z,12.20
2019-03-29T22:37:36.501Z,13.80
2019-03-29T22:40:07.950Z,13.93
2019-03-29T22:42:36.663Z,14.10
2019-03-29T22:45:09.579Z,14.77
2019-03-29T22:47:38.612Z,14.83
2019-03-29T22:50:07.867Z,14.93
2019-03-29T22:52:36.315Z,14.20
2019-03-29T22:55:06.912Z,14.70
2019-03-29T22:57:35.297Z,14.50
2019-03-29T23:00:06.992Z,14.50
2019-03-29T23:02:35.430Z,14.33
2019-03-29T23:05:06.073Z,14.60
2019-03-29T23:07:34.546Z,14.73
2019-03-29T23:10:03.266Z,14.60
2019-03-29T23:12:31.928Z,13.83
2019-03-29T23:15:00.389Z,13.83
2019-03-29T23:17:28.722Z,14.47
2019-03-29T23:19:57.110Z,14.63
2019-03-29T23:22:25.570Z,14.60
2019-03-29T23:24:54.195Z,15.27
2019-03-29T23:27:22.578Z,13.67
2019-03-29T23:29:51.004Z,13.93
2019-03-29T23:32:19.890Z,14.17
2019-03-29T23:34:48.277Z,14.03
2019-03-29T23:37:16.656Z,15.23
2019-03-29T23:39:45.431Z,15.13
2019-03-29T23:42:13.932Z,13.83
2019-03-29T23:44:42.313Z,14.40
2019-03-29T23:47:11.077Z,13.63
2019-03-29T23:49:39.572Z,14.00
2019-03-29T23:52:08.072Z,13.70
2019-03-29T23:54:36.542Z,13.10
2019-03-29T23:57:05.307Z,13.00
2019-03-29T23:59:33.950Z,13.20
